Time;durP1;ratioP1;P1;durP2;ratioP2;P2;SDS_P1;SDS_P2;PMS_P1;PMS_P2;Temp;Humidity;BMP_temperature;BMP_pressure;BME280_temperature;BME280_humidity;BME280_pressure;Samples;Min_cycle;Max_cycle;Signal;HPM_P1;HPM_P2
2023/03/26 00:00:34;;;;;;;;;;;;;;;19.84;62.90;98621.16;2087359;28;20540;-58
2023/03/26 00:01:36;;;;;;;;;;;;;;;19.84;62.81;98625.72;2079502;28;19936;-59
2023/03/26 00:02:38;;;;;;;;;;;;;;;19.83;62.89;98624.88;2082833;28;20285;-58
2023/03/26 00:03:40;;;;;;;;;;;;;;;19.83;63.17;98619.50;2078751;28;20061;-58
2023/03/26 00:04:42;;;;;;;;;;;;;;;19.84;62.73;98626.56;2081977;28;19978;-59
2023/03/26 00:05:43;;;;;;;;;;;;;;;19.84;62.78;98631.94;2086671;28;19997;-59
2023/03/26 00:06:47;;;;;;;;;;;;;;;19.83;62.92;98635.66;2087591;28;20894;-58
2023/03/26 00:07:48;;;;;;;;;;;;;;;19.85;62.93;98632.75;2086497;28;20019;-57
2023/03/26 00:08:49;;;;;;;;;;;;;;;19.85;62.83;98635.44;2083820;28;20471;-58
2023/03/26 00:09:50;;;;;;;;;;;;;;;19.81;63.25;98626.97;2080476;28;19932;-57
2023/03/26 00:10:51;;;;;;;;;;;;;;;19.82;63.03;98627.81;2084225;28;19952;-56
2023/03/26 00:11:54;;;;;;;;;;;;;;;19.81;63.05;98632.34;2086423;28;19997;-58
2023/03/26 00:12:55;;;;;;;;;;;;;;;19.83;63.39;98635.66;2085751;28;19953;-55
2023/03/26 00:13:56;;;;;;;;;;;;;;;19.83;63.26;98627.56;2086438;28;20011;-59
2023/03/26 00:14:57;;;;;;;;;;;;;;;19.82;63.14;98631.31;2087156;28;19932;-60
2023/03/26 00:15:58;;;;;;;;;;;;;;;19.81;63.29;98626.97;2087165;28;19925;-60
2023/03/26 00:17:01;;;;;;;;;;;;;;;19.83;62.96;98632.94;2086055;28;19929;-59
2023/03/26 00:18:01;;;;;;;;;;;;;;;19.82;63.11;98636.69;2077897;28;19932;-58
2023/03/26 00:19:03;;;;;;;;;;;;;;;19.81;63.24;98631.53;2081610;28;22044;-58
2023/03/26 00:20:04;;;;;;;;;;;;;;;19.81;63.15;98626.16;2084259;28;19929;-59
2023/03/26 00:21:06;;;;;;;;;;;;;;;19.81;63.40;98626.16;2082272;28;19927;-58
2023/03/26 00:22:09;;;;;;;;;;;;;;;19.80;63.15;98630.69;2083631;28;19931;-59
2023/03/26 00:23:12;;;;;;;;;;;;;;;19.78;63.33;98627.41;2086964;28;19928;-60
2023/03/26 00:24:13;;;;;;;;;;;;;;;19.80;63.36;98622.63;2083573;28;19933;-60
2023/03/26 00:25:15;;;;;;;;;;;;;;;19.80;63.50;98628.00;2084924;28;19933;-58
2023/03/26 00:26:16;;;;;;;;;;;;;;;19.81;63.59;98637.75;2082648;28;19967;-57
2023/03/26 00:27:19;;;;;;;;;;;;;;;19.79;63.54;98626.34;2084537;28;19925;-57
2023/03/26 00:28:20;;;;;;;;;;;;;;;19.80;63.23;98635.25;2084981;28;19935;-59
2023/03/26 00:29:23;;;;;;;;;;;;;;;19.80;63.27;98636.06;2086026;28;20031;-58
2023/03/26 00:30:23;;;;;;;;;;;;;;;19.80;63.48;98629.88;2082863;28;19929;-59
2023/03/26 00:31:25;;;;;;;;;;;;;;;19.78;63.19;98634.63;2084505;28;20559;-60
2023/03/26 00:32:26;;;;;;;;;;;;;;;19.79;63.35;98633.59;2084977;28;19924;-58
2023/03/26 00:33:30;;;;;;;;;;;;;;;19.79;63.72;98630.91;2086844;28;19929;-60
2023/03/26 00:34:33;;;;;;;;;;;;;;;19.78;63.62;98627.41;2084119;28;20537;-60
2023/03/26 00:35:35;;;;;;;;;;;;;;;19.78;63.30;98635.47;2087061;28;20576;-60
2023/03/26 00:36:36;;;;;;;;;;;;;;;19.75;63.66;98633.22;2090286;28;19963;-57
2023/03/26 00:37:37;;;;;;;;;;;;;;;19.76;63.83;98636.72;2090449;28;19966;-59
2023/03/26 00:38:38;;;;;;;;;;;;;;;19.76;63.58;98642.94;2090883;28;19932;-57
2023/03/26 00:39:39;;;;;;;;;;;;;;;19.76;63.57;98636.72;2089647;28;19970;-60
2023/03/26 00:40:42;;;;;;;;;;;;;;;19.74;63.69;98642.31;2092512;28;19924;-62
2023/03/26 00:41:44;;;;;;;;;;;;;;;19.73;63.91;98637.16;2091867;28;20011;-62
2023/03/26 00:42:46;;;;;;;;;;;;;;;19.73;63.85;98627.19;2088001;28;19990;-60
2023/03/26 00:43:47;;;;;;;;;;;;;;;19.75;63.55;98627.81;2085837;28;21675;-59
2023/03/26 00:44:50;;;;;;;;;;;;;;;19.74;63.86;98630.72;2085365;28;20594;-60
2023/03/26 00:45:52;;;;;;;;;;;;;;;19.74;63.73;98623.47;2085183;28;19929;-59
2023/03/26 00:46:53;;;;;;;;;;;;;;;19.74;64.10;98626.16;2083293;28;19947;-57
2023/03/26 00:47:54;;;;;;;;;;;;;;;19.71;63.91;98631.97;2084612;28;20508;-59
2023/03/26 00:48:57;;;;;;;;;;;;;;;19.72;63.80;98625.53;2083135;28;19933;-59
2023/03/26 00:49:59;;;;;;;;;;;;;;;19.71;63.96;98621.19;2082047;28;20850;-57
2023/03/26 00:51:00;;;;;;;;;;;;;;;19.68;63.88;98615.41;2082708;28;20318;-59
2023/03/26 00:52:02;;;;;;;;;;;;;;;19.68;64.14;98618.94;2087677;28;19933;-56
2023/03/26 00:53:03;;;;;;;;;;;;;;;19.70;64.08;98619.56;2086735;28;19924;-59
2023/03/26 00:54:06;;;;;;;;;;;;;;;19.72;64.03;98617.47;2086951;28;19924;-58
2023/03/26 00:55:07;;;;;;;;;;;;;;;19.72;63.86;98617.47;2087439;28;19986;-58
2023/03/26 00:56:09;;;;;;;;;;;;;;;19.72;63.40;98614.78;2083194;28;19933;-59
2023/03/26 00:57:11;;;;;;;;;;;;;;;19.71;63.51;98615.00;2086521;28;20279;-56
2023/03/26 00:58:14;;;;;;;;;;;;;;;19.70;63.95;98611.47;2081118;28;20425;-59
2023/03/26 00:59:15;;;;;;;;;;;;;;;19.72;63.75;98605.88;2083145;28;19928;-60
2023/03/26 01:00:17;;;;;;;;;;;;;;;19.70;63.83;98607.97;2083909;28;20497;-58
2023/03/26 01:01:26;;;;;;;;;;;;;;;19.71;64.09;98610.44;2087931;28;19932;-59
2023/03/26 01:02:28;;;;;;;;;;;;;;;19.70;63.62;98607.97;2085304;28;19987;-58
2023/03/26 01:03:32;;;;;;;;;;;;;;;19.69;63.97;98606.31;2088313;28;20024;-59
2023/03/26 01:04:33;;;;;;;;;;;;;;;19.69;64.00;98607.13;2083952;28;19939;-59
2023/03/26 01:05:47;;;;;;;;;;;;;;;19.67;64.06;98609.22;2079126;28;19947;-58
2023/03/26 01:06:49;;;;;;;;;;;;;;;19.68;63.95;98602.78;2084969;28;21095;-59
2023/03/26 01:07:51;;;;;;;;;;;;;;;19.68;64.22;98599.28;2084804;28;20251;-59
2023/03/26 01:08:53;;;;;;;;;;;;;;;19.67;63.90;98592.22;2076455;28;19932;-60
2023/03/26 01:09:55;;;;;;;;;;;;;;;19.67;64.24;98593.06;2082938;28;19932;-60
2023/03/26 01:11:01;;;;;;;;;;;;;;;19.67;64.05;98581.47;2084026;28;19973;-59
2023/03/26 01:12:05;;;;;;;;;;;;;;;19.66;64.52;98577.94;2080653;28;19929;-56
2023/03/26 01:13:06;;;;;;;;;;;;;;;19.67;64.46;98576.06;2085739;27;19940;-59
2023/03/26 01:14:10;;;;;;;;;;;;;;;19.67;64.22;98582.31;2084327;28;19928;-60
2023/03/26 01:15:12;;;;;;;;;;;;;;;19.66;63.98;98580.63;2087470;28;20337;-59
2023/03/26 01:16:24;;;;;;;;;;;;;;;19.66;64.44;98583.34;2088682;28;19967;-60
2023/03/26 01:17:32;;;;;;;;;;;;;;;19.67;64.51;98582.31;2086654;28;19929;-60
2023/03/26 01:18:39;;;;;;;;;;;;;;;19.66;64.70;98577.94;2086405;28;19935;-60
2023/03/26 01:19:44;;;;;;;;;;;;;;;19.66;64.55;98574.44;2083637;28;19933;-60
2023/03/26 01:20:48;;;;;;;;;;;;;;;19.64;64.70;98577.31;2082448;28;19929;-60
2023/03/26 01:21:49;;;;;;;;;;;;;;;19.64;64.70;98574.63;2085943;28;21050;-59
2023/03/26 01:22:52;;;;;;;;;;;;;;;19.64;64.54;98567.38;2085769;28;20038;-59
2023/03/26 01:23:58;;;;;;;;;;;;;;;19.64;64.37;98569.25;2083630;28;19968;-60
2023/03/26 01:25:00;;;;;;;;;;;;;;;19.63;64.69;98568.41;2086239;28;19931;-57
2023/03/26 01:26:05;;;;;;;;;;;;;;;19.66;64.62;98564.50;2085535;28;20314;-59
2023/03/26 01:27:20;;;;;;;;;;;;;;;19.67;64.53;98562.63;2085168;28;19933;-60
2023/03/26 01:28:22;;;;;;;;;;;;;;;19.67;64.76;98568.84;2084272;28;20357;-59
2023/03/26 01:29:28;;;;;;;;;;;;;;;19.67;64.65;98566.16;2082577;28;20531;-58
2023/03/26 01:30:33;;;;;;;;;;;;;;;19.69;64.84;98565.94;2084868;28;20348;-59
2023/03/26 01:31:40;;;;;;;;;;;;;;;19.68;64.97;98557.03;2084028;28;19928;-59
2023/03/26 01:32:48;;;;;;;;;;;;;;;19.66;65.01;98561.81;2086533;28;19924;-59
2023/03/26 01:33:54;;;;;;;;;;;;;;;19.66;65.12;98564.50;2085664;28;19962;-59
2023/03/26 01:35:01;;;;;;;;;;;;;;;19.67;64.70;98557.25;2083372;28;19959;-57
2023/03/26 01:36:05;;;;;;;;;;;;;;;19.68;65.17;98557.03;2084638;28;19964;-58
2023/03/26 01:37:12;;;;;;;;;;;;;;;19.68;64.92;98557.03;2084835;28;20432;-58
2023/03/26 01:38:21;;;;;;;;;;;;;;;19.65;64.98;98554.75;2086407;28;19928;-59
2023/03/26 01:39:29;;;;;;;;;;;;;;;19.66;65.22;98553.72;2088488;28;19928;-59
2023/03/26 01:40:41;;;;;;;;;;;;;;;19.66;64.95;98548.34;2082522;28;20283;-60
2023/03/26 01:41:44;;;;;;;;;;;;;;;19.65;65.22;98546.69;2081923;28;19929;-60
2023/03/26 01:42:47;;;;;;;;;;;;;;;19.67;65.18;98547.34;2083996;28;19925;-58
2023/03/26 01:43:51;;;;;;;;;;;;;;;19.67;64.91;98550.03;2087437;28;20204;-59
2023/03/26 01:44:54;;;;;;;;;;;;;;;19.65;65.31;98546.69;2088977;28;19942;-59
2023/03/26 01:45:56;;;;;;;;;;;;;;;19.63;65.16;98554.13;2085871;28;20397;-59
2023/03/26 01:46:58;;;;;;;;;;;;;;;19.64;65.08;98545.84;2086954;28;19929;-60
2023/03/26 01:47:59;;;;;;;;;;;;;;;19.63;65.13;98536.13;2086917;28;19935;-60
2023/03/26 01:49:00;;;;;;;;;;;;;;;19.62;65.24;98542.53;2087089;28;19954;-59
2023/03/26 01:50:05;;;;;;;;;;;;;;;19.64;65.19;98537.78;2086997;28;19924;-59
2023/03/26 01:51:06;;;;;;;;;;;;;;;19.63;65.00;98538.81;2087202;28;19933;-58
2023/03/26 01:52:12;;;;;;;;;;;;;;;19.62;65.20;98536.34;2087539;28;19935;-57
2023/03/26 01:53:13;;;;;;;;;;;;;;;19.65;65.08;98541.28;2089314;28;19978;-59
2023/03/26 01:54:16;;;;;;;;;;;;;;;19.62;65.04;98537.16;2085447;28;20467;-59
2023/03/26 01:55:18;;;;;;;;;;;;;;;19.62;64.92;98536.34;2088351;28;19935;-55
2023/03/26 01:56:25;;;;;;;;;;;;;;;19.62;65.00;98539.03;2087296;28;19968;-59
2023/03/26 01:57:33;;;;;;;;;;;;;;;19.61;65.09;98534.69;2084993;28;19929;-58
2023/03/26 01:58:36;;;;;;;;;;;;;;;19.62;64.84;98539.03;2085865;28;20310;-60
2023/03/26 01:59:55;;;;;;;;;;;;;;;19.60;64.93;98535.72;2090561;28;19924;-58
2023/03/26 02:01:02;;;;;;;;;;;;;;;19.59;65.30;98536.78;2085799;28;19924;-58
2023/03/26 02:02:08;;;;;;;;;;;;;;;19.58;65.31;98530.53;2087178;28;19932;-59
2023/03/26 02:03:17;;;;;;;;;;;;;;;19.60;64.81;98530.34;2087801;28;20007;-59
2023/03/26 02:04:20;;;;;;;;;;;;;;;19.61;65.35;98534.69;2087126;28;19936;-60
2023/03/26 02:05:24;;;;;;;;;;;;;;;19.59;65.35;98528.69;2086544;28;20282;-59
2023/03/26 02:06:29;;;;;;;;;;;;;;;19.61;65.33;98518.53;2088347;28;20440;-59
2023/03/26 02:07:36;;;;;;;;;;;;;;;19.59;65.37;98521.44;2085046;28;19932;-58
2023/03/26 02:08:38;;;;;;;;;;;;;;;19.59;65.29;98526.84;2087468;28;19936;-62
2023/03/26 02:09:44;;;;;;;;;;;;;;;19.57;65.30;98520.84;2086613;28;19939;-64
2023/03/26 02:10:49;;;;;;;;;;;;;;;19.55;65.51;98520.22;2086785;28;19933;-62
2023/03/26 02:11:50;;;;;;;;;;;;;;;19.56;65.35;98521.06;2088181;28;19974;-62
2023/03/26 02:12:51;;;;;;;;;;;;;;;19.59;65.48;98509.88;2084934;28;20467;-62
2023/03/26 02:13:53;;;;;;;;;;;;;;;19.58;65.49;98513.56;2084419;28;19936;-58
2023/03/26 02:14:53;;;;;;;;;;;;;;;19.58;65.57;98514.41;2086078;28;19928;-59
2023/03/26 02:15:56;;;;;;;;;;;;;;;19.58;65.44;98513.56;2084163;28;19970;-63
2023/03/26 02:16:57;;;;;;;;;;;;;;;19.60;65.31;98514.19;2086671;28;19928;-56
2023/03/26 02:18:00;;;;;;;;;;;;;;;19.59;65.14;98520.63;2085768;28;20394;-63
2023/03/26 02:19:01;;;;;;;;;;;;;;;19.57;65.31;98510.06;2084273;28;19928;-59
2023/03/26 02:20:09;;;;;;;;;;;;;;;19.57;65.45;98511.94;2083941;28;20555;-63
2023/03/26 02:21:11;;;;;;;;;;;;;;;19.52;65.59;98506.38;2083105;28;19958;-61
2023/03/26 02:22:14;;;;;;;;;;;;;;;19.50;65.43;98509.28;2085187;28;19932;-61
2023/03/26 02:23:14;;;;;;;;;;;;;;;19.50;65.28;98501.22;2082289;28;19998;-59
2023/03/26 02:24:17;;;;;;;;;;;;;;;19.53;65.11;98502.63;2077256;28;19998;-58
2023/03/26 02:25:18;;;;;;;;;;;;;;;19.52;65.15;98509.06;2082758;28;19936;-55
2023/03/26 02:26:21;;;;;;;;;;;;;;;19.51;65.36;98504.72;2083204;28;19933;-60
2023/03/26 02:27:22;;;;;;;;;;;;;;;19.48;65.42;98503.28;2085334;28;19936;-60
2023/03/26 02:28:23;;;;;;;;;;;;;;;19.47;65.42;98496.22;2086234;28;19944;-59
2023/03/26 02:29:25;;;;;;;;;;;;;;;19.48;65.32;98502.47;2083510;28;19969;-59
2023/03/26 02:30:28;;;;;;;;;;;;;;;19.47;65.56;98501.63;2083444;28;19928;-63
2023/03/26 02:31:28;;;;;;;;;;;;;;;19.47;65.42;98495.41;2086861;28;19929;-57
2023/03/26 02:32:30;;;;;;;;;;;;;;;19.42;65.61;98491.50;2082319;28;19939;-58
2023/03/26 02:33:31;;;;;;;;;;;;;;;19.42;65.71;98496.88;2083331;28;20491;-63
2023/03/26 02:34:32;;;;;;;;;;;;;;;19.43;65.53;98495.84;2084160;28;19994;-57
2023/03/26 02:35:33;;;;;;;;;;;;;;;19.42;65.58;98499.56;2086440;28;20583;-62
2023/03/26 02:36:34;;;;;;;;;;;;;;;19.41;65.52;98495.22;2084002;28;19975;-61
2023/03/26 02:37:35;;;;;;;;;;;;;;;19.41;65.30;98491.72;2084429;28;19982;-55
2023/03/26 02:38:36;;;;;;;;;;;;;;;19.41;65.73;98489.84;2086294;28;20010;-57
2023/03/26 02:39:37;;;;;;;;;;;;;;;19.41;65.50;98489.00;2085506;28;19933;-60
2023/03/26 02:40:38;;;;;;;;;;;;;;;19.42;65.70;98496.06;2087090;28;20467;-60
2023/03/26 02:41:40;;;;;;;;;;;;;;;19.45;65.45;98492.94;2084698;27;19974;-63
2023/03/26 02:42:42;;;;;;;;;;;;;;;19.41;65.39;98489.84;2085538;28;20027;-59
2023/03/26 02:43:42;;;;;;;;;;;;;;;19.39;65.53;98489.25;2083405;28;19928;-57
2023/03/26 02:44:44;;;;;;;;;;;;;;;19.41;65.52;98484.47;2084044;28;20303;-60
2023/03/26 02:45:45;;;;;;;;;;;;;;;19.41;65.63;98492.53;2084794;28;19972;-58
2023/03/26 02:46:47;;;;;;;;;;;;;;;19.41;65.59;98489.84;2083498;28;19932;-57
2023/03/26 02:47:49;;;;;;;;;;;;;;;19.43;65.30;98489.63;2084564;28;19939;-60
2023/03/26 02:48:51;;;;;;;;;;;;;;;19.43;65.56;98495.03;2086617;28;20856;-55
2023/03/26 02:49:51;;;;;;;;;;;;;;;19.41;65.25;98497.09;2085150;28;20268;-58
2023/03/26 02:50:54;;;;;;;;;;;;;;;19.41;65.56;98489.84;2084811;28;19975;-55
2023/03/26 02:51:55;;;;;;;;;;;;;;;19.42;65.50;98488.00;2082226;28;19977;-61
2023/03/26 02:52:56;;;;;;;;;;;;;;;19.39;65.46;98497.31;2082683;28;19939;-63
2023/03/26 02:53:57;;;;;;;;;;;;;;;19.39;65.27;98491.94;2087066;28;20047;-63
2023/03/26 02:54:58;;;;;;;;;;;;;;;19.38;65.77;98495.66;2081750;28;19935;-61
2023/03/26 02:55:59;;;;;;;;;;;;;;;19.38;65.51;98490.25;2085606;28;19972;-61
2023/03/26 02:57:02;;;;;;;;;;;;;;;19.38;65.63;98494.81;2082166;28;21645;-61
2023/03/26 02:58:02;;;;;;;;;;;;;;;19.37;65.71;98490.50;2082771;28;19969;-60
2023/03/26 02:59:04;;;;;;;;;;;;;;;19.37;65.79;98488.63;2078864;28;20352;-59
2023/03/26 03:00:12;;;;;;;;;;;;;;;19.37;65.33;98485.94;2080967;28;20921;-59
2023/03/26 03:01:17;;;;;;;;;;;;;;;19.37;65.26;98493.19;2080932;28;19928;-61
2023/03/26 03:02:18;;;;;;;;;;;;;;;19.35;65.80;98487.19;2082321;28;19932;-59
2023/03/26 03:03:22;;;;;;;;;;;;;;;19.35;65.80;98485.31;2083468;27;20028;-60
2023/03/26 03:04:23;;;;;;;;;;;;;;;19.37;65.41;98475.19;2082313;28;19931;-59
2023/03/26 03:05:26;;;;;;;;;;;;;;;19.35;65.49;98477.25;2083633;28;19963;-58
2023/03/26 03:06:29;;;;;;;;;;;;;;;19.34;65.53;98477.47;2082981;28;19928;-59
2023/03/26 03:07:31;;;;;;;;;;;;;;;19.34;65.66;98475.59;2083041;28;19933;-57
2023/03/26 03:08:32;;;;;;;;;;;;;;;19.35;65.41;98479.94;2083307;28;20879;-60
2023/03/26 03:09:34;;;;;;;;;;;;;;;19.36;65.63;98472.69;2086343;28;19940;-60
2023/03/26 03:10:36;;;;;;;;;;;;;;;19.35;65.56;98471.88;2085505;28;19924;-58
2023/03/26 03:11:38;;;;;;;;;;;;;;;19.35;65.79;98479.13;2087237;28;20640;-59
2023/03/26 03:12:40;;;;;;;;;;;;;;;19.36;65.68;98478.91;2083728;28;19933;-59
2023/03/26 03:13:42;;;;;;;;;;;;;;;19.36;65.60;98481.59;2082237;28;19943;-59
2023/03/26 03:14:42;;;;;;;;;;;;;;;19.37;65.67;98480.56;2082000;28;19929;-59
2023/03/26 03:15:44;;;;;;;;;;;;;;;19.38;65.60;98487.56;2083016;28;21278;-60
2023/03/26 03:16:44;;;;;;;;;;;;;;;19.36;65.91;98484.28;2084944;28;19928;-60
2023/03/26 03:17:46;;;;;;;;;;;;;;;19.34;65.74;98478.28;2085007;28;20989;-59
2023/03/26 03:18:52;;;;;;;;;;;;;;;19.34;65.82;98486.38;2087494;28;20794;-59
2023/03/26 03:19:54;;;;;;;;;;;;;;;19.34;65.84;98480.97;2079471;28;20390;-58
2023/03/26 03:20:54;;;;;;;;;;;;;;;19.34;65.78;98480.97;2079832;28;19959;-58
2023/03/26 03:21:56;;;;;;;;;;;;;;;19.33;66.07;98476.63;2082762;28;19937;-59
2023/03/26 03:22:56;;;;;;;;;;;;;;;19.33;65.80;98484.69;2084476;28;19990;-58
2023/03/26 03:23:58;;;;;;;;;;;;;;;19.35;65.63;98482.63;2083511;28;19936;-58
2023/03/26 03:24:58;;;;;;;;;;;;;;;19.35;65.86;98479.94;2083927;28;19974;-58
2023/03/26 03:26:01;;;;;;;;;;;;;;;19.34;65.93;98478.28;2069758;28;19932;-59
2023/03/26 03:27:01;;;;;;;;;;;;;;;19.34;66.00;98480.16;2080913;28;19928;-58
2023/03/26 03:28:04;;;;;;;;;;;;;;;19.32;65.93;98472.28;2085815;28;19932;-59
2023/03/26 03:29:05;;;;;;;;;;;;;;;19.32;65.90;98474.97;2081715;28;19933;-59
2023/03/26 03:30:07;;;;;;;;;;;;;;;19.31;66.06;98480.59;2082922;28;19925;-57
2023/03/26 03:31:08;;;;;;;;;;;;;;;19.28;66.17;98481.84;2084412;28;19972;-60
2023/03/26 03:32:09;;;;;;;;;;;;;;;19.30;66.12;98485.13;2081138;28;19932;-59
2023/03/26 03:33:11;;;;;;;;;;;;;;;19.32;65.69;98485.75;2082928;28;20029;-58
2023/03/26 03:34:13;;;;;;;;;;;;;;;19.31;66.12;98477.91;2083410;28;19933;-58
2023/03/26 03:35:13;;;;;;;;;;;;;;;19.32;65.84;98483.06;2083677;28;19924;-60
2023/03/26 03:36:16;;;;;;;;;;;;;;;19.32;66.22;98476.84;2082848;28;20049;-58
2023/03/26 03:37:17;;;;;;;;;;;;;;;19.32;65.96;98476.84;2080205;28;19936;-60
2023/03/26 03:38:19;;;;;;;;;;;;;;;19.33;65.66;98476.63;2083649;28;19925;-59
2023/03/26 03:39:19;;;;;;;;;;;;;;;19.31;66.10;98476.03;2075214;27;19970;-61
2023/03/26 03:40:21;;;;;;;;;;;;;;;19.32;65.91;98480.34;2081611;28;19944;-58
2023/03/26 03:41:21;;;;;;;;;;;;;;;19.29;65.94;98475.41;2083625;28;20322;-59
2023/03/26 03:42:23;;;;;;;;;;;;;;;19.31;65.86;98476.03;2085934;28;19924;-60
2023/03/26 03:43:26;;;;;;;;;;;;;;;19.32;65.87;98476.84;2084847;28;19932;-58
2023/03/26 03:44:27;;;;;;;;;;;;;;;19.29;65.98;98480.78;2082362;28;19990;-59
2023/03/26 03:45:28;;;;;;;;;;;;;;;19.29;65.87;98478.09;2084368;28;19933;-58
2023/03/26 03:46:29;;;;;;;;;;;;;;;19.30;66.20;98473.53;2085709;28;20532;-58
2023/03/26 03:47:30;;;;;;;;;;;;;;;19.28;66.08;98470.22;2086012;28;19974;-56
2023/03/26 03:48:32;;;;;;;;;;;;;;;19.28;65.93;98480.97;2085424;28;20057;-54
2023/03/26 03:49:32;;;;;;;;;;;;;;;19.30;66.04;98479.75;2083580;28;19932;-58
2023/03/26 03:50:34;;;;;;;;;;;;;;;19.28;65.92;98479.16;2085733;28;19932;-58
2023/03/26 03:51:34;;;;;;;;;;;;;;;19.28;65.95;98478.28;2084221;28;19981;-58
2023/03/26 03:52:36;;;;;;;;;;;;;;;19.28;66.17;98480.97;2085469;28;21311;-58
2023/03/26 03:53:39;;;;;;;;;;;;;;;19.28;65.84;98470.22;2086162;28;19949;-58
2023/03/26 03:54:40;;;;;;;;;;;;;;;19.28;66.05;98475.59;2086547;28;19928;-57
2023/03/26 03:55:41;;;;;;;;;;;;;;;19.27;65.83;98477.47;2088902;28;19929;-57
2023/03/26 03:56:44;;;;;;;;;;;;;;;19.27;65.93;98477.47;2083809;28;19962;-57
2023/03/26 03:57:45;;;;;;;;;;;;;;;19.26;65.95;98473.16;2085352;28;19959;-57
2023/03/26 03:58:48;;;;;;;;;;;;;;;19.25;66.27;98468.81;2085157;28;19929;-57
2023/03/26 03:59:48;;;;;;;;;;;;;;;19.26;65.95;98483.91;2088204;28;19933;-57
2023/03/26 04:00:50;;;;;;;;;;;;;;;19.26;65.92;98483.91;2084832;28;19932;-55
2023/03/26 04:01:50;;;;;;;;;;;;;;;19.27;66.27;98476.66;2085060;28;19928;-57
2023/03/26 04:02:53;;;;;;;;;;;;;;;19.26;65.92;98477.69;2086080;28;20345;-57
2023/03/26 04:03:53;;;;;;;;;;;;;;;19.24;66.22;98480.59;2087467;28;19951;-57
2023/03/26 04:04:56;;;;;;;;;;;;;;;19.23;66.31;98473.56;2087100;28;19924;-57
2023/03/26 04:05:56;;;;;;;;;;;;;;;19.21;66.12;98475.63;2086666;28;19928;-58
2023/03/26 04:06:58;;;;;;;;;;;;;;;19.22;66.08;98479.16;2085554;28;19982;-56
2023/03/26 04:07:58;;;;;;;;;;;;;;;19.23;66.32;98476.25;2086878;28;19932;-56
2023/03/26 04:09:00;;;;;;;;;;;;;;;19.23;66.36;98476.25;2084114;28;19936;-58
2023/03/26 04:10:01;;;;;;;;;;;;;;;19.21;66.16;98472.94;2085968;28;20362;-58
2023/03/26 04:11:03;;;;;;;;;;;;;;;19.22;66.07;98473.78;2085631;28;19986;-58
2023/03/26 04:12:03;;;;;;;;;;;;;;;19.22;66.38;98479.16;2086774;28;20430;-58
2023/03/26 04:13:05;;;;;;;;;;;;;;;19.18;66.35;98471.50;2086547;28;19933;-58
2023/03/26 04:14:07;;;;;;;;;;;;;;;19.22;66.23;98471.09;2083308;28;19937;-57
2023/03/26 04:15:09;;;;;;;;;;;;;;;19.22;66.32;98465.72;2083996;28;20563;-58
2023/03/26 04:16:09;;;;;;;;;;;;;;;19.19;66.12;98472.31;2081926;28;20328;-58
2023/03/26 04:17:12;;;;;;;;;;;;;;;19.20;66.53;98474.00;2083899;28;20039;-55
2023/03/26 04:18:13;;;;;;;;;;;;;;;19.19;66.31;98475.88;2085500;28;20305;-57
2023/03/26 04:19:14;;;;;;;;;;;;;;;19.23;66.32;98483.50;2084126;28;19998;-58
2023/03/26 04:20:15;;;;;;;;;;;;;;;19.19;66.06;98473.19;2083583;28;19929;-58
2023/03/26 04:21:16;;;;;;;;;;;;;;;19.19;65.93;98481.25;2083087;28;20324;-58
2023/03/26 04:22:18;;;;;;;;;;;;;;;19.19;66.15;98478.56;2082498;27;20578;-57
2023/03/26 04:23:19;;;;;;;;;;;;;;;19.20;66.09;98482.88;2074777;28;19929;-58
2023/03/26 04:24:21;;;;;;;;;;;;;;;19.20;66.09;98480.19;2072950;28;20003;-58
2023/03/26 04:25:29;;;;;;;;;;;;;;;19.22;66.02;98477.28;2073938;28;20016;-58
2023/03/26 04:26:30;;;;;;;;;;;;;;;19.21;66.03;98472.94;2082536;28;20868;-57
2023/03/26 04:27:34;;;;;;;;;;;;;;;19.20;66.20;98477.50;2082616;28;20031;-57
2023/03/26 04:28:41;;;;;;;;;;;;;;;19.21;66.08;98478.31;2083742;28;19936;-59
2023/03/26 04:29:45;;;;;;;;;;;;;;;19.21;65.95;98472.94;2083750;28;19932;-58
2023/03/26 04:30:45;;;;;;;;;;;;;;;19.19;66.30;98475.00;2083220;28;21583;-58
2023/03/26 04:31:49;;;;;;;;;;;;;;;19.18;66.43;98476.06;2082954;28;19932;-58
2023/03/26 04:32:50;;;;;;;;;;;;;;;19.19;66.42;98480.41;2086553;28;19933;-58
2023/03/26 04:33:54;;;;;;;;;;;;;;;19.20;66.22;98480.19;2081081;28;19932;-57
2023/03/26 04:34:54;;;;;;;;;;;;;;;19.20;66.50;98479.38;2082030;28;22162;-58
2023/03/26 04:36:01;;;;;;;;;;;;;;;19.19;66.18;98473.19;2085115;28;19933;-58
2023/03/26 04:37:01;;;;;;;;;;;;;;;19.19;66.50;98480.41;2085385;28;22296;-58
2023/03/26 04:38:05;;;;;;;;;;;;;;;19.19;66.69;98478.56;2084724;28;19929;-58
2023/03/26 04:39:05;;;;;;;;;;;;;;;19.21;66.32;98475.63;2084580;28;20013;-57
2023/03/26 04:40:09;;;;;;;;;;;;;;;19.20;66.22;98468.63;2083363;27;19974;-58
2023/03/26 04:41:11;;;;;;;;;;;;;;;19.18;66.61;98471.50;2085509;28;19929;-56
2023/03/26 04:42:14;;;;;;;;;;;;;;;19.19;66.50;98470.50;2086980;28;20449;-57
2023/03/26 04:43:16;;;;;;;;;;;;;;;19.19;66.36;98464.25;2086912;28;19928;-55
2023/03/26 04:44:21;;;;;;;;;;;;;;;19.19;66.09;98466.94;2083310;28;19935;-55
2023/03/26 04:45:23;;;;;;;;;;;;;;;19.16;66.19;98470.06;2084269;28;19936;-57
2023/03/26 04:46:24;;;;;;;;;;;;;;;19.14;66.17;98461.41;2084040;28;19929;-58
2023/03/26 04:47:25;;;;;;;;;;;;;;;19.14;66.36;98461.41;2083851;28;19924;-58
2023/03/26 04:48:26;;;;;;;;;;;;;;;19.15;66.38;98468.44;2084983;28;20602;-63
2023/03/26 04:49:27;;;;;;;;;;;;;;;19.14;66.29;98464.91;2085034;28;19936;-59
2023/03/26 04:50:28;;;;;;;;;;;;;;;19.12;66.65;98466.97;2083291;28;20013;-58
2023/03/26 04:51:37;;;;;;;;;;;;;;;19.12;66.44;98466.16;2086690;28;19936;-57
2023/03/26 04:52:37;;;;;;;;;;;;;;;19.12;66.16;98463.47;2086977;28;19929;-58
2023/03/26 04:53:39;;;;;;;;;;;;;;;19.14;66.53;98469.47;2086102;28;19929;-57
2023/03/26 04:54:41;;;;;;;;;;;;;;;19.14;66.37;98464.91;2089347;28;19929;-58
2023/03/26 04:55:45;;;;;;;;;;;;;;;19.13;66.15;98463.25;2088913;28;20383;-59
2023/03/26 04:56:50;;;;;;;;;;;;;;;19.12;66.51;98466.97;2087243;28;19937;-58
2023/03/26 04:57:53;;;;;;;;;;;;;;;19.11;66.54;98465.34;2084591;28;20067;-58
2023/03/26 04:58:58;;;;;;;;;;;;;;;19.13;66.40;98467.81;2085535;28;20459;-58
2023/03/26 05:00:02;;;;;;;;;;;;;;;19.10;66.30;98470.91;2084320;28;19953;-59
2023/03/26 05:01:06;;;;;;;;;;;;;;;19.10;66.46;98469.03;2087417;28;19925;-58
2023/03/26 05:02:08;;;;;;;;;;;;;;;19.10;66.42;98462.84;2084426;28;19925;-59
2023/03/26 05:03:09;;;;;;;;;;;;;;;19.10;66.35;98465.53;2084579;28;19939;-57
2023/03/26 05:04:10;;;;;;;;;;;;;;;19.09;66.50;98462.03;2084189;28;19963;-58
2023/03/26 05:05:11;;;;;;;;;;;;;;;19.10;66.53;98468.22;2084755;28;19929;-59
2023/03/26 05:06:13;;;;;;;;;;;;;;;19.09;66.64;98462.03;2082632;28;19925;-58
2023/03/26 05:07:15;;;;;;;;;;;;;;;19.07;66.74;98464.09;2084784;28;19982;-58
2023/03/26 05:08:17;;;;;;;;;;;;;;;19.08;66.45;98462.22;2088584;28;19925;-59
2023/03/26 05:09:18;;;;;;;;;;;;;;;19.08;66.35;98465.72;2086556;28;19932;-58
2023/03/26 05:10:20;;;;;;;;;;;;;;;19.07;66.35;98457.91;2085607;28;19929;-58
2023/03/26 05:11:20;;;;;;;;;;;;;;;19.07;66.54;98465.97;2085154;28;19992;-58
2023/03/26 05:12:22;;;;;;;;;;;;;;;19.08;66.44;98454.97;2087483;28;19986;-59
2023/03/26 05:13:22;;;;;;;;;;;;;;;19.07;66.71;98466.78;2085287;28;20474;-59
2023/03/26 05:14:24;;;;;;;;;;;;;;;19.04;66.38;98464.53;2083731;28;19928;-59
2023/03/26 05:15:24;;;;;;;;;;;;;;;19.08;66.49;98464.91;2083641;28;19933;-57
2023/03/26 05:16:28;;;;;;;;;;;;;;;19.07;66.46;98464.09;2084971;28;19948;-58
2023/03/26 05:17:29;;;;;;;;;;;;;;;19.09;66.37;98462.03;2086440;28;19932;-58
2023/03/26 05:18:32;;;;;;;;;;;;;;;19.09;66.67;98464.72;2087328;28;19933;-55
2023/03/26 05:19:32;;;;;;;;;;;;;;;19.07;66.78;98457.91;2082816;28;20442;-60
2023/03/26 05:20:34;;;;;;;;;;;;;;;19.06;66.49;98461.63;2087767;28;19925;-57
2023/03/26 05:21:35;;;;;;;;;;;;;;;19.07;67.05;98468.66;2081380;28;19925;-58
2023/03/26 05:22:37;;;;;;;;;;;;;;;19.08;66.98;98459.53;2084274;28;19939;-59
2023/03/26 05:23:38;;;;;;;;;;;;;;;19.08;66.67;98459.53;2083388;28;20946;-57
2023/03/26 05:24:39;;;;;;;;;;;;;;;19.06;66.77;98459.75;2087406;28;19929;-57
2023/03/26 05:25:40;;;;;;;;;;;;;;;19.08;66.71;98462.22;2084149;28;19990;-58